Flight Track Log - Related Links

Times and Time Zones

All times are in EDT time to prevent confusion due to time zone crossing. See the SWA3853 flight status page for this flight to view local times or setup timezone preferences in your user account.

Time Position Orientation Groundspeed Altitude Reporting Facility
EDT Latitude Longitude Course Direction KTS MPH feet Rate Location/Type
Wed 02:52:24 PM 39.2836 -94.6353 90° East 182 209 3,400  Level Kansas City Center
Wed 02:53:26 PM 39.2250 -94.6175 167° South 228 262 5,600 2,952 Climbing Kansas City Center
Wed 02:54:28 PM 39.1472 -94.6533 200° South 262 302 9,500 3,097 Climbing Kansas City Center
Wed 02:55:30 PM 39.0711 -94.6900 201° Southwest 307 353 12,000 3,145 Climbing Kansas City Center
Wed 02:56:32 PM 38.9672 -94.7411 201° Southwest 354 407 16,000 3,387 Climbing Kansas City Center
Wed 02:57:34 PM 38.8733 -94.7861 200° South 371 427 19,000 3,000 Climbing Kansas City Center
Wed 02:58:36 PM 38.7586 -94.8425 201° Southwest 390 449 22,200 2,613 Climbing Kansas City Center
Wed 02:59:38 PM 38.6533 -94.8944 201° Southwest 418 481 24,400 2,371 Climbing Kansas City Center
Wed 03:00:40 PM 38.5247 -94.9564 201° Southwest 437 503 27,100 2,758 Climbing Kansas City Center
Wed 03:01:42 PM 38.4150 -95.0114 201° Southwest 440 506 30,100 2,952 Climbing Kansas City Center
Wed 03:02:44 PM 38.3131 -95.0600 201° Southwest 413 475 33,200 2,710 Climbing Kansas City Center
Wed 03:03:46 PM 38.1989 -95.1133 200° South 397 457 35,700 1,355 Climbing Kansas City Center
Wed 03:04:48 PM 38.0978 -95.1533 197° South 396 456 36,000 145 Climbing Kansas City Center
Wed 03:05:50 PM 37.9747 -95.1944 195° South 405 466 36,000  Level Kansas City Center
Wed 03:06:52 PM 37.8544 -95.2353 195° South 409 471 36,000  Level Kansas City Center
Wed 03:07:54 PM 37.7442 -95.2742 196° South 412 474 36,000  Level Kansas City Center
Wed 03:08:56 PM 37.6339 -95.3103 195° South 410 472 36,000  Level Kansas City Center
Wed 03:09:59 PM 37.5228 -95.3469 195° South 412 474 36,000 576 Level Kansas City Center
Wed 03:11:01 PM 37.4106 -95.3856 195° South 416 479 37,200 968 Climbing Kansas City Center
Wed 03:12:03 PM 37.2972 -95.4233 195° South 421 484 38,000 387 Climbing Kansas City Center
Wed 03:13:05 PM 37.1600 -95.4686 195° South 424 488 38,000  Level Kansas City Center
Wed 03:14:07 PM 37.0469 -95.5064 195° South 422 486 38,000  Level Kansas City Center
Wed 03:15:09 PM 36.9342 -95.5442 195° South 421 484 38,000  Level Kansas City Center
Wed 03:16:11 PM 36.8206 -95.5819 195° South 422 486 38,000  Level Kansas City Center
Wed 03:17:13 PM 36.7092 -95.6192 195° South 419 482 38,000  Level Kansas City Center
Wed 03:18:15 PM 36.5889 -95.6581 195° South 420 483 38,000  Level Kansas City Center
Wed 03:19:17 PM 36.4758 -95.6964 195° South 421 484 38,000  Level Kansas City Center
Wed 03:20:19 PM 36.3622 -95.7336 195° South 422 486 38,000  Level Kansas City Center
Wed 03:21:21 PM 36.2372 -95.7744 195° South 425 489 38,000  Level Kansas City Center
Wed 03:22:23 PM 36.1189 -95.7625 175° South 437 503 38,000  Level Kansas City Center
Wed 03:23:25 PM 35.9769 -95.7164 165° South 441 507 38,000  Level Kansas City Center
Wed 03:24:27 PM 35.8583 -95.6792 166° South 441 507 38,000  Level Kansas City Center
Wed 03:25:29 PM 35.7397 -95.6419 166° South 440 506 38,000  Level Kansas City Center
Wed 03:26:31 PM 35.6208 -95.6039 165° South 441 507 38,000  Level Kansas City Center
Wed 03:27:33 PM 35.5019 -95.5656 165° South 441 507 38,000  Level Kansas City Center
Wed 03:28:38 PM 35.3817 -95.5294 166° South 433 498 38,000  Level Fort Worth Center
Wed 03:29:38 PM 35.2372 -95.4869 166° South 438 504 38,000  Level Fort Worth Center
Wed 03:30:38 PM 35.1178 -95.4489 165° South 438 504 38,000 -200 Level Fort Worth Center
Wed 03:31:38 PM 34.9983 -95.4264 171° South 438 504 37,600 -700 Descending Fort Worth Center
Wed 03:32:38 PM 34.8733 -95.4242 179° South 438 504 36,600 -950 Descending Fort Worth Center
Wed 03:33:38 PM 34.7614 -95.4800 202° Southwest 426 490 35,700 -950 Descending Fort Worth Center
Wed 03:34:38 PM 34.6519 -95.5406 204° Southwest 431 496 34,700 -950 Descending Fort Worth Center
Wed 03:35:38 PM 34.5400 -95.6058 206° Southwest 438 504 33,800 -950 Descending Fort Worth Center
Wed 03:36:38 PM 34.4303 -95.6661 204° Southwest 438 504 32,800 -1,000 Descending Fort Worth Center
Wed 03:37:38 PM 34.3186 -95.7314 206° Southwest 438 504 31,800 -1,150 Descending Fort Worth Center
Wed 03:38:38 PM 34.2069 -95.7989 207° Southwest 443 510 30,500 -1,850 Descending Fort Worth Center
Wed 03:39:38 PM 34.0992 -95.8583 205° Southwest 443 510 28,100 -2,400 Descending Fort Worth Center
Wed 03:40:38 PM 33.9975 -95.9178 206° Southwest 427 491 25,700 -2,867 Descending Fort Worth Center
Wed 03:42:38 PM 33.7964 -96.0339 206° Southwest 403 464 19,500 -2,967 Descending Fort Worth Center
Wed 03:43:38 PM 33.6989 -96.0903 206° Southwest 398 458 16,800 -2,250 Descending Fort Worth Center
Wed 03:44:38 PM 33.6056 -96.1439 206° Southwest 392 451 15,000 -2,250 Descending Fort Worth Center
Wed 03:45:38 PM 33.5164 -96.1925 204° Southwest 363 418 12,300 -2,300 Descending Fort Worth Center
Wed 03:46:38 PM 33.4353 -96.2386 205° Southwest 343 395 10,400 -1,150 Descending Fort Worth Center
Wed 03:47:38 PM 33.3669 -96.2767 205° Southwest 317 365 10,000 -500 Descending Fort Worth Center
Wed 03:48:38 PM 33.2836 -96.3225 205° Southwest 307 353 9,400 -800 Descending Fort Worth Center
Wed 03:49:38 PM 33.2361 -96.3778 224° Southwest 283 326 8,400 -1,400 Descending Fort Worth Center
Wed 03:50:38 PM 33.1931 -96.4578 237° Southwest 271 312 6,600 -1,500 Descending Fort Worth Center
Wed 03:51:38 PM 33.1581 -96.5250 238° Southwest 271 312 5,400 -800 Descending Fort Worth Center
Wed 03:52:38 PM 33.1250 -96.5972 241° Southwest 271 312 5,000 -200 Descending Fort Worth Center
Wed 03:53:38 PM 33.0839 -96.6747 238° Southwest 261 300 5,000  Level Fort Worth Center
Wed 03:54:14 PM 33.0667 -96.7167 244° Southwest 257 296 5,000  Level Dallas / Fort Worth TRACON
Wed 03:55:14 PM 33.0167 -96.7833 228° Southwest 255 293 5,000 -300 Level Dallas / Fort Worth TRACON
Wed 03:56:14 PM 32.9833 -96.8333 232° Southwest 202 232 4,400 -800 Descending Dallas / Fort Worth TRACON
Wed 03:57:14 PM 32.9500 -96.8833 232° Southwest 153 176 3,400 -1,190 Descending Dallas / Fort Worth TRACON
Wed 03:58:20 PM 32.9167 -96.9167 220° Southwest 131 151 1,900 -1,095 Descending Dallas / Fort Worth TRACON
Wed 03:59:20 PM 32.8833 -96.8833 140° Southeast 130 150 1,100 -800 Descending Dallas / Fort Worth TRACON
Wed 04:02:00 PM 32.8471 -96.8518 228° Southwest  Level Estimated

Login

Don't have an account? Register now (free) for customized features, flight alerts, and more!